Terminal Aerodrome Forecast
Issued by NWS Jackson, KY

Home | Current Version | Previous Version | Text Only | Print | Product List | Glossary On
Versions: 1 2 3 4 5 6 7 8 9 10 11 12 13
772
FTUS43 KJKL 212321
TAFJKL
TAF
KJKL 212321Z 2200/2224 VRB04KT P6SM SCT050
     FM220600 00000KT 6SM BR SKC
     FM221000 00000KT 1SM BR BKN002
     FM221400 00000KT P6SM BKN008
     FM221500 VRB03KT P6SM FEW015=

USA.gov is the U.S. government's official web portal to all federal, state and local government web resources and services.